createdAt,value
2018-12-21T00:00:45.538Z,7.60
2018-12-21T00:03:30.731Z,7.70
2018-12-21T00:06:00.468Z,7.70
2018-12-21T00:08:29.872Z,7.70
2018-12-21T00:10:59.639Z,7.70
2018-12-21T00:13:29.519Z,7.70
2018-12-21T00:15:59.134Z,7.70
2018-12-21T00:18:29.080Z,7.70
2018-12-21T00:21:00.051Z,7.70
2018-12-21T00:23:30.005Z,7.80
2018-12-21T00:26:15.723Z,7.80
2018-12-21T00:28:45.230Z,7.80
2018-12-21T00:31:19.855Z,7.80
2018-12-21T00:33:54.715Z,7.80
2018-12-21T00:36:29.389Z,7.90
2018-12-21T00:39:04.126Z,7.90
2018-12-21T00:41:32.626Z,7.90
2018-12-21T00:44:10.937Z,7.90
2018-12-21T00:46:46.457Z,8.00
2018-12-21T00:49:16.493Z,7.90
2018-12-21T00:51:45.970Z,7.90
2018-12-21T00:54:17.154Z,7.90
2018-12-21T00:56:46.789Z,7.90
2018-12-21T00:59:16.679Z,8.00
2018-12-21T01:01:50.146Z,8.00
2018-12-21T01:04:19.554Z,8.10
2018-12-21T01:06:49.428Z,8.00
2018-12-21T01:09:18.767Z,8.00
2018-12-21T01:11:48.583Z,8.00
2018-12-21T01:14:19.061Z,8.00
2018-12-21T01:16:48.601Z,8.00
2018-12-21T01:19:18.593Z,8.00
2018-12-21T01:21:48.011Z,8.00
2018-12-21T01:24:17.369Z,8.00
2018-12-21T01:26:46.825Z,8.00
2018-12-21T01:29:16.181Z,8.00
2018-12-21T01:31:45.598Z,8.10
2018-12-21T01:34:15.190Z,8.10
2018-12-21T01:36:44.696Z,8.10
2018-12-21T01:39:13.957Z,8.00
2018-12-21T01:41:43.551Z,8.10
2018-12-21T01:44:12.944Z,8.10
2018-12-21T01:46:42.100Z,8.10
2018-12-21T01:49:11.285Z,8.10
2018-12-21T01:51:47.041Z,8.10
2018-12-21T01:54:12.467Z,8.10
2018-12-21T01:56:42.180Z,8.10
2018-12-21T01:59:11.140Z,8.20
2018-12-21T02:01:40.486Z,8.20
2018-12-21T02:04:10.298Z,8.20
2018-12-21T02:06:40.202Z,8.20
2018-12-21T02:09:09.794Z,8.20
2018-12-21T02:11:39.623Z,8.20
2018-12-21T02:14:09.131Z,8.20
2018-12-21T02:16:38.381Z,8.20
2018-12-21T02:19:07.979Z,8.30
2018-12-21T02:21:38.092Z,8.30
2018-12-21T02:24:07.493Z,8.30
2018-12-21T02:26:36.832Z,8.30
2018-12-21T02:29:06.346Z,8.30
2018-12-21T02:31:35.564Z,8.30
2018-12-21T02:34:05.260Z,8.30
2018-12-21T02:36:34.779Z,8.20
2018-12-21T02:39:04.908Z,8.30
2018-12-21T02:41:34.519Z,8.30
2018-12-21T02:44:03.961Z,8.30
2018-12-21T02:46:33.326Z,8.30
2018-12-21T02:49:09.463Z,8.30
2018-12-21T02:51:38.975Z,8.30
2018-12-21T02:54:08.557Z,8.40
2018-12-21T02:56:38.032Z,8.40
2018-12-21T02:59:07.678Z,8.40
2018-12-21T03:01:37.067Z,8.30
2018-12-21T03:04:06.596Z,8.30
2018-12-21T03:06:35.861Z,8.30
2018-12-21T03:09:08.265Z,8.40
2018-12-21T03:11:37.794Z,8.30
2018-12-21T03:14:07.063Z,8.20
2018-12-21T03:16:36.099Z,8.20
2018-12-21T03:19:05.866Z,8.20
2018-12-21T03:21:35.496Z,8.10
2018-12-21T03:24:04.796Z,8.10
2018-12-21T03:26:34.056Z,8.10
2018-12-21T03:29:03.593Z,8.00
2018-12-21T03:31:32.751Z,8.10
2018-12-21T03:34:02.134Z,8.00
2018-12-21T03:36:31.500Z,8.00
2018-12-21T03:39:00.872Z,8.00
2018-12-21T03:41:30.036Z,8.10
2018-12-21T03:43:59.667Z,8.10
2018-12-21T03:46:29.492Z,8.00
2018-12-21T03:48:58.657Z,8.00
2018-12-21T03:51:27.694Z,8.00
2018-12-21T03:53:57.143Z,8.00
2018-12-21T03:56:26.253Z,8.00
2018-12-21T03:58:55.296Z,7.90
2018-12-21T04:01:24.572Z,7.90
2018-12-21T04:03:53.609Z,7.90
2018-12-21T04:06:22.475Z,7.90
2018-12-21T04:08:55.195Z,8.00
2018-12-21T04:11:24.515Z,8.00
2018-12-21T04:13:53.416Z,8.00
2018-12-21T04:16:22.895Z,8.00
2018-12-21T04:18:51.809Z,8.00
2018-12-21T04:21:20.731Z,7.90
2018-12-21T04:23:50.143Z,7.90
2018-12-21T04:26:19.411Z,7.80
2018-12-21T04:28:48.808Z,7.70
2018-12-21T04:31:17.784Z,7.70
2018-12-21T04:33:46.883Z,7.70
2018-12-21T04:36:16.345Z,7.70
2018-12-21T04:38:45.465Z,7.70
2018-12-21T04:41:14.884Z,7.70
2018-12-21T04:43:43.771Z,7.70
2018-12-21T04:46:12.673Z,7.70
2018-12-21T04:48:41.755Z,7.80
2018-12-21T04:51:10.956Z,7.80
2018-12-21T04:53:40.410Z,7.80
2018-12-21T04:56:12.449Z,7.90
2018-12-21T04:58:41.302Z,7.90
2018-12-21T05:01:10.524Z,7.90
2018-12-21T05:03:39.387Z,7.90
2018-12-21T05:06:08.470Z,7.90
2018-12-21T05:08:37.474Z,7.90
2018-12-21T05:11:06.688Z,7.90
2018-12-21T05:13:43.889Z,7.90
2018-12-21T05:16:12.948Z,7.90
2018-12-21T05:18:41.940Z,7.90
2018-12-21T05:21:10.827Z,7.90
2018-12-21T05:23:39.802Z,7.80
2018-12-21T05:26:08.709Z,7.80
2018-12-21T05:28:37.642Z,7.80
2018-12-21T05:31:07.042Z,7.80
2018-12-21T05:33:36.265Z,7.80
2018-12-21T05:36:05.605Z,7.70
2018-12-21T05:38:35.438Z,7.80
2018-12-21T05:41:05.254Z,7.70
2018-12-21T05:43:34.590Z,7.70
2018-12-21T05:46:04.568Z,7.70
2018-12-21T05:48:34.841Z,7.70
2018-12-21T05:51:04.656Z,7.70
2018-12-21T05:53:34.686Z,7.60
2018-12-21T05:58:44.812Z,7.50
2018-12-21T06:01:14.243Z,7.60
2018-12-21T06:03:43.460Z,7.60
2018-12-21T06:06:12.957Z,7.60
2018-12-21T06:08:43.164Z,7.60
2018-12-21T06:11:12.688Z,7.60
2018-12-21T06:13:41.986Z,7.60
2018-12-21T06:16:17.385Z,7.50
2018-12-21T06:18:47.120Z,7.60
2018-12-21T06:21:16.780Z,7.50
2018-12-21T06:23:46.175Z,7.50
2018-12-21T06:26:15.770Z,7.60
2018-12-21T06:28:45.079Z,7.60
2018-12-21T06:31:14.052Z,7.60
2018-12-21T06:33:42.917Z,7.50
2018-12-21T06:36:11.957Z,7.50
2018-12-21T06:38:41.116Z,7.60
2018-12-21T06:41:10.889Z,7.60
2018-12-21T06:43:39.733Z,7.50
2018-12-21T06:46:14.166Z,7.50
2018-12-21T06:48:39.853Z,7.60
2018-12-21T06:51:08.751Z,7.60
2018-12-21T06:53:37.566Z,7.60
2018-12-21T06:56:06.435Z,7.60
2018-12-21T06:58:35.475Z,7.60
2018-12-21T07:01:04.206Z,7.60
2018-12-21T07:03:33.316Z,7.60
2018-12-21T07:06:02.360Z,7.60
2018-12-21T07:08:31.155Z,7.70
2018-12-21T07:11:00.142Z,7.60
2018-12-21T07:13:29.237Z,7.60
2018-12-21T07:15:58.272Z,7.70
2018-12-21T07:18:27.194Z,7.70
2018-12-21T07:20:55.992Z,7.70
2018-12-21T07:25:55.935Z,7.80
2018-12-21T07:28:24.791Z,7.80
2018-12-21T07:30:54.006Z,7.80
2018-12-21T07:33:23.020Z,7.80
2018-12-21T07:35:52.155Z,7.90
2018-12-21T07:38:21.079Z,7.90
2018-12-21T07:40:50.168Z,7.90
2018-12-21T07:43:19.150Z,7.90
2018-12-21T07:45:47.952Z,7.90
2018-12-21T07:48:16.993Z,8.00
2018-12-21T07:50:45.848Z,8.00
2018-12-21T07:53:14.951Z,8.00
2018-12-21T07:55:43.686Z,8.10
2018-12-21T07:58:12.670Z,8.10
2018-12-21T08:00:41.813Z,8.10
2018-12-21T08:03:10.760Z,8.10
2018-12-21T08:05:39.489Z,8.10
2018-12-21T08:08:08.789Z,8.10
2018-12-21T08:10:37.682Z,8.10
2018-12-21T08:13:07.078Z,8.20
2018-12-21T08:15:36.445Z,8.20
2018-12-21T08:18:05.469Z,8.20
2018-12-21T08:20:35.042Z,8.20
2018-12-21T08:23:04.210Z,8.30
2018-12-21T08:25:33.469Z,8.30
2018-12-21T08:28:02.831Z,8.30
2018-12-21T08:30:31.973Z,8.30
2018-12-21T08:33:01.285Z,8.30
2018-12-21T08:35:30.310Z,8.40
2018-12-21T08:37:59.040Z,8.40
2018-12-21T08:40:28.035Z,8.40
2018-12-21T08:42:57.132Z,8.50
2018-12-21T08:45:26.126Z,8.50
2018-12-21T08:47:55.265Z,8.50
2018-12-21T08:50:24.198Z,8.50
2018-12-21T08:52:53.223Z,8.50
2018-12-21T08:55:22.445Z,8.40
2018-12-21T08:57:52.028Z,8.50
2018-12-21T09:00:20.944Z,8.40
2018-12-21T09:02:50.001Z,8.50
2018-12-21T09:05:19.025Z,8.40
2018-12-21T09:07:48.669Z,8.50
2018-12-21T09:10:17.711Z,8.40
2018-12-21T09:12:46.749Z,8.40
2018-12-21T09:15:18.445Z,8.50
2018-12-21T09:17:48.064Z,8.40
2018-12-21T09:20:16.989Z,8.50
2018-12-21T09:22:46.026Z,8.60
2018-12-21T09:25:15.305Z,8.50
2018-12-21T09:27:44.581Z,8.60
2018-12-21T09:30:14.758Z,8.60
2018-12-21T09:32:43.863Z,8.60
2018-12-21T09:35:13.088Z,8.60
2018-12-21T09:37:42.069Z,8.60
2018-12-21T09:40:12.425Z,8.60
2018-12-21T09:42:41.582Z,8.70
2018-12-21T09:45:10.918Z,8.70
2018-12-21T09:47:40.139Z,8.60
2018-12-21T09:50:10.393Z,8.70
2018-12-21T09:52:39.419Z,8.70
2018-12-21T09:55:08.631Z,8.70
2018-12-21T09:57:37.501Z,8.80
2018-12-21T10:00:09.299Z,8.80
2018-12-21T10:02:38.280Z,8.70
2018-12-21T10:05:09.475Z,8.80
2018-12-21T10:07:38.156Z,8.90
2018-12-21T10:10:07.291Z,8.90
2018-12-21T10:12:36.281Z,9.00
2018-12-21T10:15:05.613Z,9.10
2018-12-21T10:17:34.678Z,9.10
2018-12-21T10:20:03.778Z,9.20
2018-12-21T10:22:32.701Z,10.40
2018-12-21T10:25:01.431Z,9.20
2018-12-21T10:27:30.338Z,9.30
2018-12-21T10:29:59.304Z,9.30
2018-12-21T10:32:28.314Z,9.30
2018-12-21T10:34:57.180Z,9.40
2018-12-21T10:37:26.823Z,9.50
2018-12-21T10:39:55.913Z,9.50
2018-12-21T10:42:26.828Z,9.50
2018-12-21T10:44:56.338Z,9.60
2018-12-21T10:47:25.254Z,9.60
2018-12-21T10:49:54.293Z,9.60
2018-12-21T10:52:23.217Z,9.60
2018-12-21T10:54:52.264Z,9.60
2018-12-21T10:57:21.275Z,9.60
2018-12-21T10:59:51.952Z,9.70
2018-12-21T11:02:20.935Z,9.70
2018-12-21T11:04:49.813Z,9.80
2018-12-21T11:07:18.592Z,9.80
2018-12-21T11:09:47.694Z,9.80
2018-12-21T11:12:16.685Z,9.80
2018-12-21T11:14:45.472Z,9.90
2018-12-21T11:17:14.813Z,9.90
2018-12-21T11:19:43.733Z,10.00
2018-12-21T11:22:13.013Z,10.10
2018-12-21T11:24:41.932Z,10.10
2018-12-21T11:27:10.971Z,10.20
2018-12-21T11:29:40.266Z,10.30
2018-12-21T11:32:09.534Z,10.30
2018-12-21T11:34:38.391Z,10.40
2018-12-21T11:37:07.733Z,10.40
2018-12-21T11:39:36.817Z,10.50
2018-12-21T11:42:05.933Z,10.60
2018-12-21T11:44:35.103Z,10.70
2018-12-21T11:47:04.133Z,10.80
2018-12-21T11:49:33.173Z,10.90
2018-12-21T11:52:02.330Z,11.00
2018-12-21T11:54:31.187Z,11.00
2018-12-21T11:57:00.290Z,11.10
2018-12-21T11:59:29.438Z,11.20
2018-12-21T12:01:58.251Z,11.30
2018-12-21T12:04:27.173Z,11.30
2018-12-21T12:06:56.211Z,11.40
2018-12-21T12:09:25.149Z,11.50
2018-12-21T12:11:53.868Z,11.50
2018-12-21T12:14:22.905Z,11.60
2018-12-21T12:16:52.612Z,11.60
2018-12-21T12:19:23.572Z,11.70
2018-12-21T12:21:53.210Z,11.70
2018-12-21T12:24:23.447Z,11.70
2018-12-21T12:26:52.784Z,11.80
2018-12-21T12:29:22.249Z,11.80
2018-12-21T12:31:51.171Z,11.80
2018-12-21T12:34:20.650Z,11.80
2018-12-21T12:36:49.667Z,11.90
2018-12-21T12:39:18.464Z,12.00
2018-12-21T12:41:47.384Z,12.00
2018-12-21T12:44:16.489Z,12.00
2018-12-21T12:46:45.632Z,12.10
2018-12-21T12:49:14.626Z,12.10
2018-12-21T12:51:43.717Z,12.10
2018-12-21T12:54:12.650Z,12.10
2018-12-21T12:56:41.984Z,12.10
2018-12-21T12:59:10.844Z,12.10
2018-12-21T13:01:40.255Z,12.10
2018-12-21T13:04:09.009Z,12.10
2018-12-21T13:06:38.205Z,12.10
2018-12-21T13:09:07.965Z,12.10
2018-12-21T13:11:37.490Z,12.10
2018-12-21T13:14:06.221Z,12.10
2018-12-21T13:16:35.444Z,12.10
2018-12-21T13:19:04.606Z,12.20
2018-12-21T13:21:33.648Z,12.20
2018-12-21T13:24:02.684Z,12.20
2018-12-21T13:26:31.548Z,12.20
2018-12-21T13:29:00.883Z,12.10
2018-12-21T13:31:36.078Z,12.10
2018-12-21T13:34:05.177Z,12.10
2018-12-21T13:36:34.070Z,12.10
2018-12-21T13:39:03.575Z,12.10
2018-12-21T13:41:32.563Z,12.10
2018-12-21T13:44:01.762Z,12.10
2018-12-21T13:46:31.432Z,12.10
2018-12-21T13:49:00.406Z,12.20
2018-12-21T13:51:30.138Z,12.20
2018-12-21T13:53:59.219Z,12.20
2018-12-21T13:56:28.361Z,12.30
2018-12-21T13:58:58.045Z,12.30
2018-12-21T14:01:27.769Z,12.30
2018-12-21T14:03:57.215Z,12.30
2018-12-21T14:06:26.200Z,12.30
2018-12-21T14:08:56.167Z,12.30
2018-12-21T14:11:25.360Z,12.40
2018-12-21T14:13:54.471Z,12.40
2018-12-21T14:16:24.141Z,12.40
2018-12-21T14:18:53.776Z,11.90
2018-12-21T14:21:23.080Z,12.40
2018-12-21T14:23:52.783Z,12.40
2018-12-21T14:26:39.822Z,12.30
2018-12-21T14:29:08.798Z,12.30
2018-12-21T14:31:38.560Z,12.30
2018-12-21T14:34:08.328Z,12.30
2018-12-21T14:36:37.245Z,12.30
2018-12-21T14:39:07.414Z,12.30
2018-12-21T14:41:37.359Z,12.30
2018-12-21T14:44:06.642Z,12.30
2018-12-21T14:46:35.678Z,12.30
2018-12-21T14:49:05.196Z,12.30
2018-12-21T14:51:35.078Z,12.20
2018-12-21T14:54:04.047Z,12.20
2018-12-21T14:56:33.545Z,12.20
2018-12-21T14:59:02.972Z,12.20
2018-12-21T15:01:32.341Z,12.10
2018-12-21T15:04:02.199Z,12.10
2018-12-21T15:06:31.243Z,12.00
2018-12-21T15:09:00.774Z,12.10
2018-12-21T15:11:30.407Z,12.10
2018-12-21T15:13:59.317Z,12.00
2018-12-21T15:16:28.237Z,12.00
2018-12-21T15:18:58.212Z,12.00
2018-12-21T15:21:28.274Z,11.90
2018-12-21T15:23:58.655Z,12.00
2018-12-21T15:26:28.497Z,11.90
2018-12-21T15:28:58.113Z,12.00
2018-12-21T15:31:28.404Z,11.90
2018-12-21T15:33:57.513Z,11.90
2018-12-21T15:36:27.210Z,11.80
2018-12-21T15:38:56.443Z,11.80
2018-12-21T15:41:26.338Z,11.80
2018-12-21T15:43:55.233Z,11.80
2018-12-21T15:46:24.225Z,11.80
2018-12-21T15:48:53.952Z,11.70
2018-12-21T15:51:23.916Z,11.70
2018-12-21T15:53:53.754Z,11.70
2018-12-21T15:56:23.437Z,11.70
2018-12-21T15:58:53.137Z,11.70
2018-12-21T16:01:22.784Z,11.70
2018-12-21T16:03:52.596Z,11.80
2018-12-21T16:06:21.632Z,11.70
2018-12-21T16:09:00.819Z,11.70
2018-12-21T16:11:30.154Z,11.70
2018-12-21T16:13:59.189Z,11.70
2018-12-21T16:16:28.355Z,11.70
2018-12-21T16:18:57.090Z,11.70
2018-12-21T16:21:25.948Z,11.60
2018-12-21T16:23:54.871Z,11.60
2018-12-21T16:26:23.792Z,11.60
2018-12-21T16:28:52.834Z,11.60
2018-12-21T16:31:21.753Z,11.50
2018-12-21T16:33:51.155Z,11.40
2018-12-21T16:36:20.243Z,11.40
2018-12-21T16:38:49.469Z,11.30
2018-12-21T16:41:18.508Z,11.30
2018-12-21T16:43:47.673Z,11.20
2018-12-21T16:46:16.831Z,11.20
2018-12-21T16:48:47.309Z,11.10
2018-12-21T16:51:16.594Z,11.10
2018-12-21T16:53:45.642Z,11.00
2018-12-21T16:56:14.800Z,11.00
2018-12-21T16:58:44.029Z,10.90
2018-12-21T17:01:12.915Z,10.90
2018-12-21T17:03:42.009Z,10.90
2018-12-21T17:06:11.189Z,10.80
2018-12-21T17:08:40.108Z,10.80
2018-12-21T17:11:09.124Z,10.80
2018-12-21T17:13:44.002Z,10.80
2018-12-21T17:16:12.986Z,10.70
2018-12-21T17:18:42.155Z,10.70
2018-12-21T17:21:10.948Z,10.70
2018-12-21T17:23:40.105Z,10.70
2018-12-21T17:26:09.181Z,10.70
2018-12-21T17:28:38.424Z,10.80
2018-12-21T17:31:07.225Z,10.80
2018-12-21T17:33:36.877Z,10.80
2018-12-21T17:36:06.023Z,10.80
2018-12-21T17:38:35.162Z,10.80
2018-12-21T17:41:04.108Z,10.80
2018-12-21T17:43:33.407Z,10.80
2018-12-21T17:46:02.384Z,10.80
2018-12-21T17:48:31.589Z,10.80
2018-12-21T17:51:00.743Z,10.80
2018-12-21T17:53:29.627Z,10.80
2018-12-21T17:55:58.826Z,10.80
2018-12-21T17:58:27.751Z,10.80
2018-12-21T18:00:57.022Z,10.80
2018-12-21T18:03:32.799Z,10.80
2018-12-21T18:06:01.820Z,10.80
2018-12-21T18:08:30.801Z,10.80
2018-12-21T18:10:59.900Z,10.80
2018-12-21T18:13:29.063Z,10.80
2018-12-21T18:15:57.818Z,10.90
2018-12-21T18:18:26.660Z,10.90
2018-12-21T18:20:55.697Z,10.90
2018-12-21T18:23:24.981Z,10.90
2018-12-21T18:25:53.903Z,10.90
2018-12-21T18:28:26.299Z,10.90
2018-12-21T18:31:02.668Z,10.90
2018-12-21T18:33:31.578Z,10.90
2018-12-21T18:36:00.507Z,11.00
2018-12-21T18:38:30.985Z,10.90
2018-12-21T18:41:00.141Z,10.90
2018-12-21T18:43:29.113Z,10.90
2018-12-21T18:45:58.220Z,10.90
2018-12-21T18:48:27.738Z,11.00
2018-12-21T18:50:56.779Z,11.00
2018-12-21T18:53:25.705Z,11.00
2018-12-21T18:55:55.103Z,11.00
2018-12-21T18:58:24.137Z,10.90
2018-12-21T19:00:53.183Z,10.90
2018-12-21T19:03:22.099Z,10.90
2018-12-21T19:05:51.017Z,10.90
2018-12-21T19:08:19.935Z,10.80
2018-12-21T19:10:48.737Z,10.80
2018-12-21T19:13:17.656Z,10.80
2018-12-21T19:15:46.577Z,10.70
2018-12-21T19:18:15.314Z,10.70
2018-12-21T19:20:44.300Z,10.60
2018-12-21T19:23:18.793Z,10.60
2018-12-21T19:25:47.776Z,10.50
2018-12-21T19:28:16.632Z,10.50
2018-12-21T19:30:45.795Z,10.50
2018-12-21T19:33:14.778Z,10.50
2018-12-21T19:35:43.817Z,10.40
2018-12-21T19:38:12.970Z,10.30
2018-12-21T19:40:42.015Z,10.30
2018-12-21T19:43:11.173Z,10.30
2018-12-21T19:45:40.558Z,10.20
2018-12-21T19:48:09.907Z,10.10
2018-12-21T19:50:39.011Z,10.20
2018-12-21T19:53:08.048Z,10.10
2018-12-21T19:57:17.815Z,10.10
2018-12-21T19:59:46.692Z,10.10
2018-12-21T20:02:15.733Z,10.10
2018-12-21T20:04:44.530Z,10.00
2018-12-21T20:07:13.456Z,10.00
2018-12-21T20:09:42.731Z,10.00
2018-12-21T20:12:11.544Z,10.10
2018-12-21T20:14:40.331Z,10.00
2018-12-21T20:17:09.249Z,10.10
2018-12-21T20:19:38.215Z,10.10
2018-12-21T20:22:07.211Z,10.20
2018-12-21T20:24:38.537Z,10.20
2018-12-21T20:27:13.852Z,10.30
2018-12-21T20:29:41.147Z,10.30
2018-12-21T20:32:10.137Z,10.30
2018-12-21T20:34:39.136Z,10.40
2018-12-21T20:37:08.289Z,10.40
2018-12-21T20:39:39.730Z,10.40
2018-12-21T20:42:08.554Z,10.50
2018-12-21T20:44:37.567Z,10.50
2018-12-21T20:47:06.605Z,10.50
2018-12-21T20:49:35.527Z,10.50
2018-12-21T20:52:04.570Z,10.50
2018-12-21T20:54:33.719Z,10.40
2018-12-21T20:57:03.727Z,10.40
2018-12-21T20:59:32.932Z,10.40
2018-12-21T21:02:01.863Z,10.40
2018-12-21T21:04:30.848Z,10.50
2018-12-21T21:06:59.697Z,10.50
2018-12-21T21:09:28.686Z,10.50
2018-12-21T21:11:57.724Z,10.50
2018-12-21T21:14:26.673Z,10.50
2018-12-21T21:16:55.805Z,10.50
2018-12-21T21:19:26.170Z,10.40
2018-12-21T21:21:55.387Z,10.30
2018-12-21T21:24:26.708Z,10.30
2018-12-21T21:26:55.202Z,10.30
2018-12-21T21:29:24.129Z,10.30
2018-12-21T21:31:53.166Z,10.30
2018-12-21T21:34:22.189Z,10.20
2018-12-21T21:37:03.162Z,10.20
2018-12-21T21:39:32.283Z,10.20
2018-12-21T21:42:01.559Z,10.10
2018-12-21T21:44:30.483Z,10.00
2018-12-21T21:46:59.339Z,9.90
2018-12-21T21:49:28.428Z,9.80
2018-12-21T21:51:57.519Z,9.70
2018-12-21T21:54:26.718Z,9.80
2018-12-21T21:56:55.609Z,9.80
2018-12-21T21:59:24.603Z,9.80
2018-12-21T22:01:53.521Z,9.80
2018-12-21T22:04:22.560Z,9.70
2018-12-21T22:06:51.655Z,9.80
2018-12-21T22:09:20.703Z,9.70
2018-12-21T22:11:49.620Z,9.70
2018-12-21T22:14:18.602Z,9.70
2018-12-21T22:16:47.336Z,9.70
2018-12-21T22:19:16.436Z,9.70
2018-12-21T22:21:45.174Z,9.70
2018-12-21T22:24:14.211Z,9.60
2018-12-21T22:26:43.440Z,9.70
2018-12-21T22:29:12.418Z,9.60
2018-12-21T22:31:41.487Z,9.70
2018-12-21T22:34:10.795Z,9.70
2018-12-21T22:36:39.716Z,9.80
2018-12-21T22:39:08.459Z,9.70
2018-12-21T22:41:37.662Z,9.60
2018-12-21T22:44:06.357Z,9.60
2018-12-21T22:46:40.967Z,9.70
2018-12-21T22:49:10.265Z,9.70
2018-12-21T22:51:39.169Z,9.70
2018-12-21T22:54:08.156Z,9.70
2018-12-21T22:56:37.198Z,9.70
2018-12-21T22:59:06.234Z,9.80
2018-12-21T23:01:35.096Z,9.90
2018-12-21T23:04:04.829Z,9.80
2018-12-21T23:06:34.194Z,9.80
2018-12-21T23:09:03.352Z,9.80
2018-12-21T23:11:32.208Z,9.80
2018-12-21T23:14:01.194Z,9.80
2018-12-21T23:16:29.993Z,9.80
2018-12-21T23:18:58.911Z,9.70
2018-12-21T23:21:27.766Z,9.60
2018-12-21T23:23:56.751Z,9.70
2018-12-21T23:26:25.910Z,9.60
2018-12-21T23:28:54.946Z,9.50
2018-12-21T23:31:24.600Z,9.40
2018-12-21T23:33:53.544Z,9.50
2018-12-21T23:36:22.549Z,9.50
2018-12-21T23:38:51.468Z,9.60
2018-12-21T23:41:21.009Z,9.60
2018-12-21T23:43:49.968Z,9.60
2018-12-21T23:46:19.028Z,9.60
2018-12-21T23:48:47.902Z,9.70
2018-12-21T23:51:16.967Z,9.70
2018-12-21T23:53:45.951Z,9.60
2018-12-21T23:56:14.981Z,9.60
2018-12-21T23:58:43.728Z,9.60
